Time;durP1;ratioP1;P1;durP2;ratioP2;P2;SDS_P1;SDS_P2;PMS_P1;PMS_P2;Temp;Humidity;BMP_temperature;BMP_pressure;BME280_temperature;BME280_humidity;BME280_pressure;Samples;Min_cycle;Max_cycle;Signal;HPM_P1;HPM_P2
2022/01/17 00:01:30;;;;;;;6.25;1.67;;;10.10;70.10;;;;;;6158055;23;20017;-75
2022/01/17 00:03:56;;;;;;;8.90;1.48;;;10.20;70.20;;;;;;6158044;23;20021;-76
2022/01/17 00:06:22;;;;;;;9.10;1.52;;;10.10;70.10;;;;;;6158244;23;20017;-74
2022/01/17 00:08:49;;;;;;;5.13;0.98;;;10.10;70.10;;;;;;6157755;23;20022;-75
2022/01/17 00:11:16;;;;;;;7.97;1.50;;;10.20;70.10;;;;;;6158626;23;20028;-75
2022/01/17 00:13:44;;;;;;;6.20;1.35;;;10.10;70.00;;;;;;6132843;23;20022;-77
2022/01/17 00:21:04;;;;;;;10.57;1.13;;;10.20;70.00;;;;;;6157193;23;20431;-74
2022/01/17 00:23:30;;;;;;;6.28;1.20;;;10.20;69.90;;;;;;6157295;23;20021;-75
2022/01/17 00:25:56;;;;;;;5.68;1.42;;;10.20;69.90;;;;;;6132709;23;20022;-77
2022/01/17 00:28:22;;;;;;;6.75;1.05;;;10.10;69.80;;;;;;6157218;23;20096;-75
2022/01/17 00:30:47;;;;;;;7.18;1.23;;;10.10;69.90;;;;;;6157893;23;20091;-75
2022/01/17 00:33:13;;;;;;;5.28;1.30;;;10.10;69.80;;;;;;6156718;23;20092;-75
2022/01/17 00:35:39;;;;;;;5.68;1.60;;;10.20;69.90;;;;;;6157394;23;20026;-76
2022/01/17 00:38:05;;;;;;;8.73;1.70;;;10.20;69.80;;;;;;6157069;23;20419;-76
2022/01/17 00:40:31;;;;;;;4.50;1.00;;;10.20;69.70;;;;;;6156598;23;20013;-75
2022/01/17 00:42:57;;;;;;;10.07;1.40;;;10.10;69.70;;;;;;6156959;23;20411;-75
2022/01/17 00:45:30;;;;;;;4.95;1.35;;;10.20;69.70;;;;;;6156627;23;20025;-77
2022/01/17 00:47:57;;;;;;;6.90;1.65;;;10.20;69.60;;;;;;6158174;23;20022;-75
2022/01/17 00:50:25;;;;;;;7.03;1.60;;;10.20;69.70;;;;;;6158027;23;20017;-77
2022/01/17 00:52:51;;;;;;;5.68;1.63;;;10.10;69.70;;;;;;6157201;23;20029;-74
2022/01/17 00:55:17;;;;;;;5.22;1.48;;;10.10;69.60;;;;;;6158071;23;20057;-74
2022/01/17 00:57:43;;;;;;;4.72;1.40;;;10.20;69.70;;;;;;6157710;23;20033;-75
2022/01/17 01:00:10;;;;;;;6.35;1.33;;;10.20;69.70;;;;;;6132301;23;20021;-77
2022/01/17 01:02:36;;;;;;;6.72;1.17;;;10.20;69.70;;;;;;6158755;23;20021;-75
2022/01/17 01:05:04;;;;;;;4.68;0.98;;;10.20;69.60;;;;;;6157197;23;20018;-76
2022/01/17 01:07:30;;;;;;;9.02;1.95;;;10.20;69.70;;;;;;6158026;23;20013;-76
2022/01/17 01:10:10;;;;;;;6.85;1.63;;;10.20;69.70;;;;;;6156452;23;20097;-76
2022/01/17 01:12:36;;;;;;;10.18;1.88;;;10.10;69.60;;;;;;6157548;23;20028;-75
2022/01/17 01:15:05;;;;;;;7.93;1.70;;;10.20;69.70;;;;;;6158575;23;20049;-74
2022/01/17 01:17:36;;;;;;;8.07;1.35;;;10.20;69.70;;;;;;6157691;23;20028;-75
2022/01/17 01:28:11;;;;;;;4.72;1.13;;;10.20;69.60;;;;;;6158514;23;20025;-77
2022/01/17 01:30:41;;;;;;;7.22;1.48;;;10.20;69.60;;;;;;6156804;23;20022;-75
2022/01/17 01:33:07;;;;;;;7.20;1.52;;;10.10;69.50;;;;;;6131877;23;20029;-77
2022/01/17 01:35:34;;;;;;;8.98;1.90;;;10.10;69.50;;;;;;6157465;23;20021;-74
2022/01/17 01:38:00;;;;;;;8.73;2.40;;;10.20;69.60;;;;;;6156777;23;20021;-74
2022/01/17 01:40:27;;;;;;;8.98;1.77;;;10.10;69.50;;;;;;6156331;23;20019;-76
2022/01/17 01:42:54;;;;;;;7.68;1.42;;;10.10;69.40;;;;;;6159025;23;20021;-74
2022/01/17 01:45:21;;;;;;;7.65;1.38;;;10.10;69.50;;;;;;6158245;23;20018;-75
2022/01/17 01:47:48;;;;;;;8.68;1.77;;;10.10;69.40;;;;;;6159428;23;20028;-76
2022/01/17 01:50:14;;;;;;;7.32;2.08;;;10.10;69.40;;;;;;6159062;23;20028;-74
2022/01/17 01:52:41;;;;;;;9.00;1.75;;;10.20;69.50;;;;;;6160174;23;20029;-76
2022/01/17 01:55:10;;;;;;;10.43;1.20;;;10.10;69.40;;;;;;6158614;23;20080;-77
2022/01/17 01:57:35;;;;;;;8.70;1.88;;;10.10;69.30;;;;;;6159675;23;20010;-74
2022/01/17 02:00:02;;;;;;;5.25;1.30;;;10.20;69.40;;;;;;6160519;23;20013;-75
2022/01/17 02:02:28;;;;;;;9.18;1.98;;;10.10;69.30;;;;;;6160426;23;20029;-75
2022/01/17 02:04:53;;;;;;;7.68;1.35;;;10.10;69.30;;;;;;6159165;23;20021;-76
2022/01/17 02:07:20;;;;;;;7.43;1.25;;;10.10;69.30;;;;;;6158533;23;20105;-76
2022/01/17 02:09:46;;;;;;;8.73;1.90;;;10.10;69.30;;;;;;6159841;23;20089;-74
2022/01/17 02:12:13;;;;;;;8.25;1.70;;;10.10;69.40;;;;;;6158863;23;20017;-77
2022/01/17 02:14:39;;;;;;;9.02;2.33;;;10.10;69.30;;;;;;6158379;23;20025;-74
2022/01/17 02:17:05;;;;;;;9.02;1.65;;;10.10;69.40;;;;;;6159064;23;20025;-75
2022/01/17 02:19:33;;;;;;;6.82;1.88;;;10.10;69.40;;;;;;6157908;23;20028;-74
2022/01/17 02:21:59;;;;;;;6.68;1.52;;;10.10;69.30;;;;;;6159452;23;20033;-76
2022/01/17 02:24:25;;;;;;;6.82;1.20;;;10.10;69.40;;;;;;6159419;23;20017;-76
2022/01/17 02:26:52;;;;;;;6.53;1.50;;;10.10;69.40;;;;;;6157924;23;20021;-77
2022/01/17 02:29:19;;;;;;;7.72;1.35;;;10.10;69.30;;;;;;6158332;23;20352;-76
2022/01/17 02:31:46;;;;;;;7.57;1.98;;;10.10;69.20;;;;;;6158310;23;20092;-75
2022/01/17 02:34:12;;;;;;;6.68;1.40;;;10.10;69.20;;;;;;6159214;23;20407;-74
2022/01/17 02:36:38;;;;;;;7.28;1.40;;;10.10;69.20;;;;;;6133594;23;20017;-76
2022/01/17 02:39:04;;;;;;;8.93;1.70;;;10.10;69.20;;;;;;6159073;23;20454;-76
2022/01/17 02:41:33;;;;;;;7.15;1.85;;;10.10;69.20;;;;;;6159295;23;20021;-77
2022/01/17 02:44:01;;;;;;;7.20;1.20;;;10.10;69.10;;;;;;6134310;23;20360;-75
2022/01/17 02:46:27;;;;;;;7.10;1.42;;;10.20;69.20;;;;;;6133245;23;20017;-75
2022/01/17 02:48:55;;;;;;;6.88;1.70;;;10.10;69.10;;;;;;6157620;23;20085;-76
2022/01/17 02:51:21;;;;;;;7.72;1.27;;;10.10;69.20;;;;;;6157727;23;20028;-76
2022/01/17 02:53:47;;;;;;;11.15;1.67;;;10.10;69.10;;;;;;6159280;23;20014;-77
2022/01/17 02:56:12;;;;;;;6.85;1.60;;;10.10;69.10;;;;;;6157399;23;20438;-75
2022/01/17 02:58:40;;;;;;;7.22;1.70;;;10.10;69.20;;;;;;6158763;23;20057;-75
2022/01/17 03:01:13;;;;;;;9.07;1.67;;;10.10;69.20;;;;;;6158970;23;20344;-76
2022/01/17 03:03:41;;;;;;;5.88;1.85;;;10.10;69.20;;;;;;6134437;23;20100;-76
2022/01/17 03:06:08;;;;;;;5.70;1.27;;;10.10;69.20;;;;;;6160102;23;20023;-77
2022/01/17 03:08:34;;;;;;;7.43;1.70;;;10.10;69.20;;;;;;6158881;23;20014;-77
2022/01/17 03:11:05;;;;;;;7.03;1.52;;;10.10;69.20;;;;;;6157861;23;20089;-74
2022/01/17 03:13:33;;;;;;;5.47;1.65;;;10.10;69.30;;;;;;6158138;23;20028;-77
2022/01/17 03:16:04;;;;;;;7.22;1.88;;;10.10;69.20;;;;;;6157973;23;20471;-75
2022/01/17 03:18:39;;;;;;;9.02;2.17;;;10.10;69.20;;;;;;6158719;23;20443;-76
2022/01/17 03:21:06;;;;;;;7.32;1.30;;;10.10;69.10;;;;;;6133208;23;20021;-74
2022/01/17 03:23:32;;;;;;;9.45;1.90;;;10.10;69.00;;;;;;6157695;23;20017;-77
2022/01/17 03:25:58;;;;;;;7.43;1.38;;;10.20;69.10;;;;;;6159589;23;20083;-76
2022/01/17 03:28:25;;;;;;;8.07;1.80;;;10.10;69.00;;;;;;6157873;23;20024;-74
2022/01/17 03:30:52;;;;;;;5.05;1.20;;;10.10;68.90;;;;;;6158436;23;20462;-77
2022/01/17 03:33:18;;;;;;;7.88;1.60;;;10.10;68.90;;;;;;6159076;23;20025;-75
2022/01/17 03:35:44;;;;;;;11.05;2.00;;;10.10;68.90;;;;;;6157751;23;20021;-76
2022/01/17 03:38:13;;;;;;;6.75;1.33;;;10.20;69.00;;;;;;6158278;23;20481;-75
2022/01/17 03:40:39;;;;;;;6.43;1.60;;;10.10;69.00;;;;;;6157908;23;20017;-75
2022/01/17 03:43:06;;;;;;;5.57;1.23;;;10.20;69.00;;;;;;6158653;23;20025;-77
2022/01/17 03:45:32;;;;;;;12.00;2.03;;;10.10;68.90;;;;;;6158365;23;20017;-74
2022/01/17 03:47:58;;;;;;;5.13;1.48;;;10.10;69.00;;;;;;6157623;23;20470;-77
2022/01/17 03:50:25;;;;;;;6.28;1.30;;;10.10;69.00;;;;;;6158229;23;20057;-75
2022/01/17 03:52:51;;;;;;;8.93;1.73;;;10.10;69.10;;;;;;6158616;23;20293;-74
2022/01/17 03:55:19;;;;;;;9.50;2.22;;;10.10;69.10;;;;;;6158126;23;20033;-76
2022/01/17 03:57:45;;;;;;;9.20;1.90;;;10.10;69.10;;;;;;6156986;23;20088;-76
2022/01/17 04:00:23;;;;;;;4.55;1.02;;;10.10;69.10;;;;;;6158448;23;20056;-75
2022/01/17 04:02:49;;;;;;;6.93;1.80;;;10.10;69.10;;;;;;6159587;23;20097;-76
2022/01/17 04:05:15;;;;;;;6.30;1.55;;;10.10;69.20;;;;;;6156973;23;20311;-75
2022/01/17 04:07:41;;;;;;;6.55;1.52;;;10.10;69.20;;;;;;6158372;23;20021;-75
2022/01/17 04:10:07;;;;;;;7.28;1.48;;;10.10;69.20;;;;;;6158427;23;20026;-78
2022/01/17 04:12:33;;;;;;;6.75;1.02;;;10.10;69.10;;;;;;6158476;23;20018;-76
2022/01/17 04:14:58;;;;;;;4.90;0.95;;;10.10;69.20;;;;;;6157298;23;20056;-76
2022/01/17 04:17:28;;;;;;;4.60;1.52;;;10.10;69.20;;;;;;6157206;23;20021;-76
2022/01/17 04:20:09;;;;;;;7.97;1.13;;;10.10;69.20;;;;;;6157326;23;20009;-76
2022/01/17 04:22:40;;;;;;;6.00;1.60;;;10.10;69.20;;;;;;6158056;23;20048;-76
2022/01/17 04:25:07;;;;;;;6.43;1.73;;;10.10;69.20;;;;;;6157988;23;20022;-75
2022/01/17 04:27:33;;;;;;;8.00;1.33;;;10.10;69.10;;;;;;6158551;23;20288;-76
2022/01/17 04:29:59;;;;;;;6.78;1.60;;;10.10;69.20;;;;;;6157191;23;20403;-77
2022/01/17 04:32:25;;;;;;;6.63;1.42;;;10.10;69.20;;;;;;6158196;23;20068;-76
2022/01/17 04:34:51;;;;;;;9.15;1.70;;;10.10;69.20;;;;;;6157853;23;20363;-75
2022/01/17 04:37:17;;;;;;;4.38;1.67;;;10.10;69.20;;;;;;6156584;23;20021;-77
2022/01/17 04:39:42;;;;;;;7.28;1.50;;;10.10;69.20;;;;;;6156982;23;20029;-76
2022/01/17 04:42:13;;;;;;;10.05;1.80;;;10.10;69.30;;;;;;6157805;23;20018;-75
2022/01/17 04:45:18;;;;;;;8.45;2.17;;;10.10;69.30;;;;;;6157226;23;20021;-75
2022/01/17 04:47:36;;;;;;;9.48;1.70;;;10.10;69.30;;;;;;6152388;23;20072;-76
2022/01/17 04:50:12;;;;;;;7.82;1.60;;;10.10;69.30;;;;;;6156586;23;20021;-75
2022/01/17 04:52:38;;;;;;;7.40;1.58;;;10.10;69.30;;;;;;6157122;23;20039;-77
2022/01/17 04:55:06;;;;;;;5.43;1.00;;;10.10;69.30;;;;;;6156945;23;20017;-75
2022/01/17 04:57:32;;;;;;;9.00;1.60;;;10.10;69.40;;;;;;6156710;23;20324;-75
2022/01/17 04:59:58;;;;;;;6.15;1.48;;;10.10;69.40;;;;;;6158038;23;20100;-75
2022/01/17 05:02:24;;;;;;;7.10;1.60;;;10.10;69.30;;;;;;6156439;23;20163;-77
2022/01/17 05:04:51;;;;;;;9.25;2.10;;;10.10;69.30;;;;;;6157368;23;20025;-75
2022/01/17 05:07:16;;;;;;;7.93;1.83;;;10.10;69.40;;;;;;6156828;23;20029;-75
2022/01/17 05:09:43;;;;;;;8.68;2.25;;;10.10;69.40;;;;;;6156816;23;20022;-75
2022/01/17 05:12:10;;;;;;;9.05;1.77;;;10.10;69.40;;;;;;6158900;23;20084;-76
2022/01/17 05:14:40;;;;;;;5.82;1.58;;;10.10;69.50;;;;;;6157116;23;20408;-76
2022/01/17 05:17:22;;;;;;;5.97;1.70;;;10.10;69.50;;;;;;6157738;23;20013;-74
2022/01/17 05:19:56;;;;;;;8.00;1.77;;;10.10;69.60;;;;;;6158004;23;20024;-75
2022/01/17 05:22:22;;;;;;;7.05;2.20;;;10.10;69.60;;;;;;6156341;23;20017;-76
2022/01/17 05:24:48;;;;;;;12.15;2.17;;;10.10;69.50;;;;;;6157023;23;20014;-75
2022/01/17 05:27:14;;;;;;;8.15;1.80;;;10.10;69.50;;;;;;6158450;23;20022;-75
2022/01/17 05:29:40;;;;;;;7.32;2.22;;;10.10;69.50;;;;;;6157915;23;20076;-75
2022/01/17 05:32:06;;;;;;;7.75;2.08;;;10.10;69.50;;;;;;6156328;23;20017;-74
2022/01/17 05:34:40;;;;;;;8.77;1.73;;;10.10;69.50;;;;;;6156629;23;20088;-76
2022/01/17 05:37:07;;;;;;;7.13;1.70;;;10.10;69.60;;;;;;6132335;23;20111;-75
2022/01/17 05:39:33;;;;;;;6.80;2.08;;;10.10;69.60;;;;;;6156678;23;20017;-77
2022/01/17 05:41:59;;;;;;;11.30;2.05;;;10.10;69.60;;;;;;6156740;23;20080;-76
2022/01/17 05:44:25;;;;;;;8.15;1.73;;;10.10;70.20;;;;;;6157759;23;20021;-74
2022/01/17 05:46:50;;;;;;;8.13;2.10;;;10.10;69.60;;;;;;6156293;23;20025;-75
2022/01/17 05:49:16;;;;;;;6.07;2.03;;;10.10;69.60;;;;;;6156286;23;20018;-76
2022/01/17 05:51:42;;;;;;;6.85;1.88;;;10.10;69.60;;;;;;6157786;23;20428;-76
2022/01/17 05:54:08;;;;;;;9.75;2.40;;;10.10;69.60;;;;;;6158486;23;20100;-75
2022/01/17 05:56:34;;;;;;;10.32;2.00;;;10.10;69.70;;;;;;6131518;23;20072;-76
2022/01/17 05:59:00;;;;;;;9.75;2.65;;;10.10;69.60;;;;;;6156220;23;20068;-76
2022/01/17 06:01:25;;;;;;;6.97;2.15;;;10.10;69.60;;;;;;6157995;23;20014;-76
2022/01/17 06:03:51;;;;;;;10.43;3.00;;;10.10;69.60;;;;;;6157963;23;20346;-76
2022/01/17 06:06:17;;;;;;;8.57;2.22;;;10.10;69.60;;;;;;6157836;23;20295;-76
2022/01/17 06:08:42;;;;;;;8.35;1.83;;;10.10;69.60;;;;;;6156630;23;20022;-76
2022/01/17 06:11:09;;;;;;;11.55;2.50;;;10.10;69.60;;;;;;6156893;23;20017;-75
2022/01/17 06:13:35;;;;;;;8.98;2.10;;;10.10;69.60;;;;;;6158315;23;20299;-75
2022/01/17 06:16:01;;;;;;;10.00;2.25;;;10.10;69.60;;;;;;6156871;23;20040;-74
2022/01/17 06:18:27;;;;;;;7.53;2.00;;;10.10;69.70;;;;;;6157841;23;20430;-75
2022/01/17 06:20:53;;;;;;;8.43;2.22;;;10.10;69.80;;;;;;6156605;23;20061;-76
2022/01/17 06:23:18;;;;;;;7.68;2.95;;;10.10;69.80;;;;;;6132910;23;20206;-76
2022/01/17 06:25:44;;;;;;;10.57;2.03;;;10.10;69.80;;;;;;6157971;23;20040;-76
2022/01/17 06:28:10;;;;;;;9.82;2.30;;;10.10;69.90;;;;;;6157256;23;20454;-75
2022/01/17 06:30:36;;;;;;;7.30;2.33;;;10.10;70.00;;;;;;6159326;23;20017;-74
2022/01/17 06:33:03;;;;;;;6.43;2.20;;;10.10;70.00;;;;;;6158390;23;20100;-75
2022/01/17 06:35:29;;;;;;;9.02;2.25;;;10.10;70.00;;;;;;6158538;23;20017;-75
2022/01/17 06:37:55;;;;;;;7.75;2.17;;;10.10;70.00;;;;;;6159141;23;20025;-76
2022/01/17 06:40:21;;;;;;;6.43;2.17;;;10.10;70.00;;;;;;6157737;23;20293;-76
2022/01/17 06:42:47;;;;;;;9.13;2.38;;;10.10;70.00;;;;;;6158305;23;20025;-76
2022/01/17 06:45:14;;;;;;;9.73;2.83;;;10.10;70.00;;;;;;6158063;23;20018;-74
2022/01/17 06:47:40;;;;;;;8.57;2.60;;;10.10;70.00;;;;;;6158412;23;20122;-77
2022/01/17 06:50:08;;;;;;;10.88;2.88;;;10.10;70.10;;;;;;6159679;23;20014;-74
2022/01/17 06:52:34;;;;;;;8.52;2.10;;;10.10;70.10;;;;;;6158303;23;20084;-74
2022/01/17 06:55:01;;;;;;;12.73;2.65;;;10.10;70.10;;;;;;6158380;23;20032;-76
2022/01/17 06:57:26;;;;;;;7.25;2.45;;;10.20;70.20;;;;;;6159551;23;20018;-76
2022/01/17 06:59:54;;;;;;;12.57;2.58;;;10.10;70.10;;;;;;6159760;23;20423;-76
2022/01/17 07:02:20;;;;;;;13.77;2.65;;;10.10;70.10;;;;;;6159845;23;20025;-77
2022/01/17 07:04:46;;;;;;;9.48;2.78;;;10.10;70.10;;;;;;6159010;23;20018;-75
2022/01/17 07:07:12;;;;;;;13.60;2.28;;;10.10;70.10;;;;;;6158144;23;20374;-75
2022/01/17 07:09:38;;;;;;;9.52;2.58;;;10.10;70.10;;;;;;6158360;23;20017;-74
2022/01/17 07:12:05;;;;;;;9.90;2.10;;;10.10;70.10;;;;;;6159078;23;20013;-77
2022/01/17 07:14:31;;;;;;;7.50;2.30;;;10.10;70.10;;;;;;6157479;23;20017;-77
2022/01/17 07:16:57;;;;;;;8.48;2.10;;;10.10;70.10;;;;;;6157793;23;20021;-75
2022/01/17 07:19:23;;;;;;;12.50;2.90;;;10.10;70.20;;;;;;6158932;23;20021;-75
2022/01/17 07:21:50;;;;;;;11.20;3.15;;;10.10;70.20;;;;;;6158074;23;20021;-76
2022/01/17 07:24:16;;;;;;;11.77;3.33;;;10.10;70.20;;;;;;6158015;23;20029;-78
2022/01/17 07:26:42;;;;;;;8.32;2.28;;;10.10;70.10;;;;;;6157371;23;20093;-75
2022/01/17 07:29:08;;;;;;;12.77;2.85;;;10.10;70.20;;;;;;6157766;23;20111;-76
2022/01/17 07:31:38;;;;;;;11.15;2.33;;;10.10;70.20;;;;;;6158148;23;20470;-76
2022/01/17 07:34:05;;;;;;;9.75;2.85;;;10.10;70.30;;;;;;6159654;23;20014;-75
2022/01/17 07:36:31;;;;;;;12.07;3.08;;;10.10;70.30;;;;;;6157224;23;20072;-75
2022/01/17 07:38:58;;;;;;;7.55;2.25;;;10.10;70.30;;;;;;6159132;23;20344;-76
2022/01/17 07:41:24;;;;;;;13.35;3.45;;;10.10;70.40;;;;;;6157593;23;20022;-76
2022/01/17 07:43:52;;;;;;;9.27;2.78;;;10.10;70.40;;;;;;6158733;23;20017;-78
2022/01/17 07:46:23;;;;;;;9.40;3.05;;;10.10;70.50;;;;;;6159301;23;20014;-75
2022/01/17 07:51:34;;;;;;;9.90;2.42;;;10.10;70.50;;;;;;6159141;23;20021;-75
2022/01/17 07:54:00;;;;;;;14.02;3.55;;;10.10;70.60;;;;;;6157920;23;20419;-75
2022/01/17 07:56:26;;;;;;;12.30;2.95;;;10.10;70.60;;;;;;6157640;23;20032;-77
2022/01/17 07:58:52;;;;;;;12.38;2.85;;;10.10;70.50;;;;;;6157391;23;20044;-77
2022/01/17 08:01:19;;;;;;;11.27;2.63;;;10.10;70.50;;;;;;6157460;23;20484;-75
2022/01/17 08:03:45;;;;;;;11.18;2.35;;;10.10;70.50;;;;;;6133242;23;20411;-76
2022/01/17 08:06:11;;;;;;;13.70;2.47;;;10.10;70.50;;;;;;6133889;23;20022;-77
2022/01/17 08:08:37;;;;;;;9.63;2.72;;;10.10;70.50;;;;;;6157814;23;20101;-76
2022/01/17 08:11:03;;;;;;;12.52;2.95;;;10.10;70.50;;;;;;6159028;23;20061;-77
2022/01/17 08:13:28;;;;;;;12.02;2.72;;;10.10;70.50;;;;;;6132739;23;20022;-77
2022/01/17 08:15:55;;;;;;;10.40;3.25;;;10.10;70.50;;;;;;6156901;23;20060;-78
2022/01/17 08:18:21;;;;;;;7.88;2.42;;;10.10;70.50;;;;;;6158989;23;20018;-77
2022/01/17 08:20:47;;;;;;;12.15;2.95;;;10.10;70.50;;;;;;6156987;23;20017;-76
2022/01/17 08:23:13;;;;;;;9.60;2.40;;;10.20;70.50;;;;;;6159033;23;20028;-76
2022/01/17 08:25:39;;;;;;;15.88;2.70;;;10.20;71.10;;;;;;6157496;23;20025;-76
2022/01/17 08:28:04;;;;;;;10.98;3.22;;;10.20;70.50;;;;;;6157113;23;20096;-76
2022/01/17 08:30:32;;;;;;;10.25;2.45;;;10.20;70.50;;;;;;6159317;23;20028;-75
2022/01/17 08:32:59;;;;;;;9.00;2.70;;;10.20;70.40;;;;;;6157938;23;20029;-77
2022/01/17 08:35:25;;;;;;;9.02;2.20;;;10.20;70.40;;;;;;6157295;23;20091;-77
2022/01/17 08:37:51;;;;;;;11.52;2.65;;;10.20;70.40;;;;;;6158239;23;20018;-77
2022/01/17 08:40:18;;;;;;;8.77;2.90;;;10.20;70.40;;;;;;6158227;23;20022;-76
2022/01/17 08:42:45;;;;;;;12.93;2.88;;;10.20;70.30;;;;;;6156613;23;20024;-76
2022/01/17 08:45:13;;;;;;;14.82;3.28;;;10.20;70.30;;;;;;6157335;23;20032;-76
2022/01/17 08:47:39;;;;;;;9.77;2.92;;;10.30;70.40;;;;;;6158513;23;20233;-77
2022/01/17 08:50:07;;;;;;;9.98;2.97;;;10.30;70.30;;;;;;6158674;23;20053;-76
2022/01/17 08:52:33;;;;;;;9.18;2.33;;;10.30;70.30;;;;;;6157156;23;20021;-76
2022/01/17 08:54:59;;;;;;;11.43;2.30;;;10.30;70.30;;;;;;6132702;23;20586;-75
2022/01/17 08:57:25;;;;;;;8.63;2.53;;;10.30;70.20;;;;;;6156457;23;20061;-77
2022/01/17 08:59:52;;;;;;;10.63;2.72;;;10.30;70.30;;;;;;6157093;23;20376;-75
2022/01/17 09:02:18;;;;;;;11.85;2.80;;;10.30;70.30;;;;;;6156588;23;20017;-77
2022/01/17 09:04:44;;;;;;;8.93;2.35;;;10.30;70.30;;;;;;6132553;23;20022;-74
2022/01/17 09:07:15;;;;;;;9.63;2.38;;;10.30;70.30;;;;;;6159089;23;20044;-75
2022/01/17 09:09:42;;;;;;;11.70;2.97;;;10.30;70.30;;;;;;6158055;23;20022;-77
2022/01/17 09:12:10;;;;;;;11.15;2.78;;;10.30;70.30;;;;;;6157384;23;20446;-75
2022/01/17 09:14:37;;;;;;;12.63;2.47;;;10.30;70.30;;;;;;6157225;23;20053;-76
2022/01/17 09:17:07;;;;;;;11.07;3.05;;;10.30;70.30;;;;;;6132455;23;20028;-75
2022/01/17 09:19:36;;;;;;;10.70;2.17;;;10.30;70.30;;;;;;6156478;23;20485;-77
2022/01/17 09:22:04;;;;;;;10.82;2.95;;;10.30;70.30;;;;;;6156516;23;20056;-78
2022/01/17 09:24:29;;;;;;;11.93;2.75;;;10.30;70.30;;;;;;6156359;23;20029;-76
2022/01/17 09:26:55;;;;;;;10.32;2.72;;;10.30;70.40;;;;;;6157903;23;20031;-77
2022/01/17 09:29:21;;;;;;;10.95;2.72;;;10.30;70.30;;;;;;6157436;23;20079;-75
2022/01/17 09:31:47;;;;;;;9.80;2.28;;;10.30;70.30;;;;;;6156461;23;20017;-77
2022/01/17 09:34:13;;;;;;;16.08;3.20;;;10.30;70.30;;;;;;6157964;23;20096;-76
2022/01/17 09:36:39;;;;;;;11.25;2.70;;;10.30;70.30;;;;;;6157896;23;20181;-74
2022/01/17 09:39:06;;;;;;;11.57;2.97;;;10.30;70.40;;;;;;6157559;23;20473;-75
2022/01/17 09:41:33;;;;;;;11.75;2.95;;;10.40;70.40;;;;;;6157557;23;20495;-76
2022/01/17 09:43:59;;;;;;;9.52;2.45;;;10.40;70.40;;;;;;6132863;23;20096;-77
2022/01/17 09:46:32;;;;;;;12.18;2.78;;;10.40;70.40;;;;;;6157763;23;20463;-77
2022/01/17 09:49:13;;;;;;;8.30;1.90;;;10.40;70.60;;;;;;6156320;23;20017;-75
2022/01/17 09:52:05;;;;;;;12.68;2.85;;;10.40;70.40;;;;;;6157845;23;20248;-77
2022/01/17 09:54:35;;;;;;;13.30;2.97;;;10.40;70.40;;;;;;6156703;23;20152;-75
2022/01/17 09:57:08;;;;;;;10.10;2.75;;;10.40;70.50;;;;;;6157601;23;20314;-77
2022/01/17 09:59:36;;;;;;;11.32;3.08;;;10.40;70.50;;;;;;6156347;23;20088;-75
2022/01/17 10:02:04;;;;;;;12.60;2.88;;;10.40;70.50;;;;;;6157676;23;20371;-76
2022/01/17 10:04:30;;;;;;;13.43;2.70;;;10.40;70.50;;;;;;6159201;23;20061;-77
2022/01/17 10:06:57;;;;;;;9.20;2.08;;;10.40;70.50;;;;;;6159696;23;20426;-76
2022/01/17 10:09:25;;;;;;;11.15;2.47;;;10.40;70.60;;;;;;6134412;23;20033;-77
2022/01/17 10:12:06;;;;;;;11.10;2.47;;;10.40;70.60;;;;;;6158507;23;20022;-76
2022/01/17 10:14:36;;;;;;;12.45;3.35;;;10.40;70.70;;;;;;6158771;23;20021;-76
2022/01/17 10:17:16;;;;;;;9.77;2.58;;;10.40;70.70;;;;;;6159602;23;20029;-75
2022/01/17 10:19:43;;;;;;;12.60;2.38;;;10.40;70.80;;;;;;6158460;23;20013;-76
2022/01/17 10:22:18;;;;;;;10.15;2.80;;;10.40;70.80;;;;;;6159622;23;20018;-75
2022/01/17 10:24:57;;;;;;;11.52;2.75;;;10.40;70.80;;;;;;6157939;23;20056;-77
2022/01/17 10:35:30;;;;;;;13.75;3.28;;;10.50;70.80;;;;;;6159917;23;20025;-76
2022/01/17 10:37:59;;;;;;;11.20;2.93;;;10.40;70.70;;;;;;6158141;23;20436;-76
2022/01/17 10:40:26;;;;;;;11.98;3.33;;;10.40;70.80;;;;;;6158821;23;20017;-76
2022/01/17 10:42:52;;;;;;;11.27;3.63;;;10.50;70.80;;;;;;6158295;23;20115;-78
2022/01/17 10:45:24;;;;;;;12.68;3.35;;;10.50;70.80;;;;;;6158231;23;20021;-77
2022/01/17 10:47:55;;;;;;;14.07;3.00;;;10.50;70.90;;;;;;6157725;23;20022;-77
2022/01/17 10:50:33;;;;;;;15.88;3.63;;;10.50;70.80;;;;;;6160230;23;20033;-75
2022/01/17 10:53:03;;;;;;;14.13;3.60;;;10.50;70.90;;;;;;6158774;23;20556;-75
2022/01/17 10:55:34;;;;;;;15.65;3.50;;;10.50;70.90;;;;;;6157788;23;20028;-74
2022/01/17 10:58:07;;;;;;;13.32;3.03;;;10.50;70.90;;;;;;6160111;23;20025;-76
2022/01/17 11:00:42;;;;;;;9.15;2.42;;;10.50;70.90;;;;;;6157904;23;20076;-76
2022/01/17 11:03:11;;;;;;;9.82;3.25;;;10.50;70.90;;;;;;6159836;23;20351;-75
2022/01/17 11:05:43;;;;;;;10.48;3.28;;;10.50;70.90;;;;;;6159397;23;20021;-77
2022/01/17 11:08:09;;;;;;;13.85;3.45;;;10.50;70.90;;;;;;6157912;23;20033;-76
2022/01/17 11:10:39;;;;;;;19.35;3.67;;;10.50;71.00;;;;;;6159775;23;20025;-76
2022/01/17 11:13:11;;;;;;;17.08;4.03;;;10.50;71.10;;;;;;6158105;23;20052;-77
2022/01/17 11:15:39;;;;;;;14.77;3.35;;;10.50;71.10;;;;;;6158891;23;20020;-77
2022/01/17 11:18:18;;;;;;;13.70;3.47;;;10.50;71.10;;;;;;6158084;23;20092;-76
2022/01/17 11:20:45;;;;;;;14.27;4.10;;;10.50;71.10;;;;;;6157890;23;20017;-77
2022/01/17 11:23:11;;;;;;;16.52;3.45;;;10.50;71.10;;;;;;6158971;23;20478;-75
2022/01/17 11:25:41;;;;;;;17.08;3.45;;;10.50;71.10;;;;;;6157651;23;20087;-77
2022/01/17 11:28:08;;;;;;;13.82;3.50;;;10.50;71.20;;;;;;6159490;23;20022;-77
2022/01/17 11:30:36;;;;;;;9.27;3.35;;;10.50;71.10;;;;;;6157486;23;20088;-75
2022/01/17 11:33:04;;;;;;;12.70;3.22;;;10.50;71.20;;;;;;6158074;23;20026;-78
2022/01/17 11:35:34;;;;;;;13.90;4.10;;;10.50;71.20;;;;;;6159460;23;20026;-76
2022/01/17 11:38:02;;;;;;;14.57;3.42;;;10.50;71.30;;;;;;6158251;23;20025;-76
2022/01/17 11:40:34;;;;;;;16.05;3.65;;;10.50;71.30;;;;;;6158779;23;20023;-75
2022/01/17 11:43:01;;;;;;;14.73;3.47;;;10.50;71.40;;;;;;6157238;23;20017;-76
2022/01/17 11:45:32;;;;;;;11.93;3.60;;;10.50;71.40;;;;;;6159080;23;20026;-77
2022/01/17 11:48:05;;;;;;;16.73;4.18;;;10.50;71.40;;;;;;6157697;23;20028;-75
2022/01/17 11:50:41;;;;;;;12.75;3.58;;;10.50;71.40;;;;;;6159249;23;20056;-77
2022/01/17 11:53:07;;;;;;;12.45;3.88;;;10.50;71.40;;;;;;6158331;23;20097;-75
2022/01/17 11:55:42;;;;;;;16.08;4.75;;;10.50;71.40;;;;;;6133075;23;20068;-76
2022/01/17 11:58:38;;;;;;;14.80;3.28;;;10.50;71.40;;;;;;6157011;23;20028;-76
2022/01/17 12:01:04;;;;;;;11.30;3.63;;;10.50;71.50;;;;;;6159364;23;20634;-76
2022/01/17 12:03:47;;;;;;;12.75;3.60;;;10.60;71.40;;;;;;6156947;23;20096;-75
2022/01/17 12:06:22;;;;;;;9.82;3.42;;;10.60;71.40;;;;;;6158530;23;20021;-76
2022/01/17 12:08:50;;;;;;;13.45;3.42;;;10.60;71.40;;;;;;6158461;23;20021;-76
2022/01/17 12:11:30;;;;;;;14.00;3.33;;;10.50;71.40;;;;;;6158398;23;20017;-77
2022/01/17 12:14:02;;;;;;;10.50;3.10;;;10.60;71.40;;;;;;6158080;23;20450;-76
2022/01/17 12:16:32;;;;;;;13.73;3.55;;;10.60;71.40;;;;;;6158804;23;20300;-77
2022/01/17 12:18:59;;;;;;;17.92;4.70;;;10.60;71.40;;;;;;6158504;23;20061;-77
2022/01/17 12:21:28;;;;;;;13.30;3.75;;;10.60;71.40;;;;;;6157287;23;20105;-77
2022/01/17 12:24:20;;;;;;;13.90;3.72;;;10.60;71.40;;;;;;6132608;23;20017;-76
2022/01/17 12:26:57;;;;;;;14.27;3.85;;;10.60;71.40;;;;;;6157340;23;20036;-77
2022/01/17 12:29:55;;;;;;;13.98;4.13;;;10.60;71.40;;;;;;6158142;23;20273;-78
2022/01/17 12:32:23;;;;;;;17.73;4.13;;;10.60;71.40;;;;;;6107716;23;20025;-76
2022/01/17 12:34:51;;;;;;;14.45;3.58;;;10.60;71.40;;;;;;6157420;23;20021;-77
2022/01/17 12:37:34;;;;;;;17.67;4.07;;;10.60;71.40;;;;;;6158345;23;20319;-78
2022/01/17 12:40:30;;;;;;;19.67;4.32;;;10.70;71.40;;;;;;6157047;23;20021;-76
2022/01/17 12:43:09;;;;;;;19.88;4.30;;;10.60;71.40;;;;;;6106006;23;20029;-76
2022/01/17 12:45:39;;;;;;;17.27;4.78;;;10.60;71.40;;;;;;6132138;23;20017;-76
2022/01/17 12:48:21;;;;;;;18.95;4.65;;;10.60;71.40;;;;;;6157986;23;20017;-77
2022/01/17 12:50:49;;;;;;;20.70;4.20;;;10.70;71.40;;;;;;6132739;23;20026;-77
2022/01/17 12:53:18;;;;;;;11.00;3.67;;;10.70;71.40;;;;;;6157869;23;20037;-75
2022/01/17 12:55:46;;;;;;;16.15;4.05;;;10.70;71.40;;;;;;6156985;23;20064;-75
2022/01/17 12:58:21;;;;;;;16.65;4.10;;;10.70;71.40;;;;;;6158048;23;20048;-77
2022/01/17 13:00:48;;;;;;;13.38;4.03;;;10.70;71.40;;;;;;6156914;23;20482;-76
2022/01/17 13:03:16;;;;;;;18.42;3.97;;;10.70;71.40;;;;;;6132459;23;20075;-76
2022/01/17 13:05:42;;;;;;;13.98;3.92;;;10.70;71.40;;;;;;6156808;23;20454;-76
2022/01/17 13:08:08;;;;;;;12.65;3.75;;;10.70;71.30;;;;;;6158201;23;20427;-75
2022/01/17 13:10:34;;;;;;;14.73;3.63;;;10.70;71.30;;;;;;6157076;23;20028;-75
2022/01/17 13:13:00;;;;;;;13.95;3.88;;;10.70;71.30;;;;;;6158717;23;20036;-77